This is the latest recevied weather packets stored in our database for station/object OE-2100. If no packets are shown the sender has not sent any weather packets the latest 10 day(s).
| Time | Temp. | Humidity | Pressure | Rain* | Wind** | Luminosity | Snow |
|---|---|---|---|---|---|---|---|
| 1787910068 | 29.44° C | 47% | 1007.3 hPa | - | - | - | - |
| 1787908267 | 27.78° C | 53% | 1008.7 hPa | - | - | - | - |
| 1787906467 | 27.78° C | 50% | 1008.7 hPa | - | - | - | - |
| 1787904668 | 27.78° C | 49% | 1008.8 hPa | - | - | - | - |
| 1787902867 | 26.11° C | 56% | 1009.2 hPa | - | - | - | - |
| 1787901067 | 25.56° C | 54% | 1009.3 hPa | - | - | - | - |
| 1787899268 | 25.56° C | 52% | 1010.3 hPa | - | - | - | - |
| 1787897467 | 25.56° C | 50% | 1010.3 hPa | - | - | - | - |
| 1787895667 | 24.44° C | 53% | 1010.6 hPa | - | - | - | - |
| 1787893868 | 23.89° C | 54% | 1010.8 hPa | - | - | - | - |
| 1787892067 | 24.44° C | 52% | 1010.6 hPa | - | - | - | - |
| 1787890267 | 25° C | 52% | 1010.5 hPa | - | - | - | - |
| 1787886667 | 26.11° C | 49% | 1010.3 hPa | - | - | - | - |
| 1787884868 | 26.11° C | 49% | 1010.2 hPa | - | - | - | - |
| 1787883068 | 26.11° C | 50% | 1010.3 hPa | - | - | - | - |
| 1787881268 | 26.11° C | 49% | 1010.3 hPa | - | - | - | - |
| 1787879467 | 26.11° C | 49% | 1010.2 hPa | - | - | - | - |
| 1787877667 | 25.56° C | 51% | 1010.3 hPa | - | - | - | - |
| 1787875867 | 26.11° C | 50% | 1010.2 hPa | - | - | - | - |
| 1787874067 | 26.67° C | 49% | 1011.2 hPa | - | - | - | - |
| 1787870468 | 26.11° C | 53% | 1011.4 hPa | - | - | - | - |
| 1787868668 | 25.56° C | 56% | 1011.5 hPa | - | - | - | - |
| 1787866868 | 25° C | 58% | 1011.6 hPa | - | - | - | - |
| 1787865068 | 25° C | 60% | 1011.5 hPa | - | - | - | - |
| 1787863268 | 25° C | 65% | 1012.7 hPa | - | - | - | - |
* Rain since midnight (hover to see other rain measurements)
** Current wind speed in m/s (hover to see current wind gust speed)